createdAt,value
2022-11-27T00:04:04.339Z,6.64755
2022-11-27T00:09:06.121Z,3.76735
2022-11-27T00:14:07.934Z,2.32725
2022-11-27T00:19:09.703Z,0
2022-11-27T00:24:11.529Z,0
2022-11-27T00:29:13.240Z,0
2022-11-27T00:34:15.016Z,0
2022-11-27T00:39:16.884Z,0
2022-11-27T00:44:18.703Z,0
2022-11-27T00:49:20.360Z,0
2022-11-27T00:54:22.957Z,0
2022-11-27T00:59:24.728Z,0
2022-11-27T01:04:26.487Z,0
2022-11-27T01:09:28.204Z,0
2022-11-27T01:14:30.081Z,0
2022-11-27T01:19:32.009Z,0
2022-11-27T01:24:33.776Z,0
2022-11-27T01:29:35.623Z,0
2022-11-27T01:34:37.440Z,0
2022-11-27T01:39:39.233Z,0
2022-11-27T01:44:41.421Z,0
2022-11-27T01:49:43.431Z,0
2022-11-27T01:54:45.117Z,0
2022-11-27T01:59:46.842Z,0
2022-11-27T02:04:48.682Z,0
2022-11-27T02:09:50.321Z,0
2022-11-27T02:14:52.046Z,0
2022-11-27T02:19:53.862Z,0
2022-11-27T02:24:55.523Z,0
2022-11-27T02:29:57.204Z,0
2022-11-27T02:34:58.819Z,0
2022-11-27T02:40:00.435Z,0
2022-11-27T02:45:02.179Z,0
2022-11-27T02:50:03.783Z,0
2022-11-27T02:55:05.448Z,0
2022-11-27T03:00:07.138Z,0
2022-11-27T03:05:08.832Z,0
2022-11-27T03:10:10.749Z,0
2022-11-27T03:15:12.577Z,0
2022-11-27T03:20:14.313Z,0
2022-11-27T03:25:16.165Z,0
2022-11-27T03:30:17.968Z,0
2022-11-27T03:35:19.666Z,0
2022-11-27T03:40:21.425Z,0
2022-11-27T03:45:23.378Z,0
2022-11-27T03:50:25.164Z,0
2022-11-27T03:55:26.987Z,0
2022-11-27T04:00:28.939Z,0
2022-11-27T04:05:30.694Z,0
2022-11-27T04:10:32.461Z,0
2022-11-27T04:15:34.171Z,0
2022-11-27T04:20:35.917Z,0
2022-11-27T04:25:37.567Z,0
2022-11-27T04:30:39.236Z,0
2022-11-27T04:35:40.885Z,0
2022-11-27T04:40:42.738Z,0
2022-11-27T04:45:44.393Z,0
2022-11-27T04:50:46.035Z,0
2022-11-27T04:55:47.700Z,0
2022-11-27T05:00:49.536Z,0
2022-11-27T05:05:51.210Z,0
2022-11-27T05:10:53.005Z,0
2022-11-27T05:15:54.935Z,0
2022-11-27T05:20:56.814Z,0
2022-11-27T05:25:58.532Z,0
2022-11-27T05:31:00.308Z,0
2022-11-27T05:36:02.128Z,0
2022-11-27T05:41:03.941Z,0
2022-11-27T05:46:05.749Z,0
2022-11-27T05:51:07.436Z,0
2022-11-27T05:56:09.506Z,0
2022-11-27T06:01:11.285Z,0
2022-11-27T06:06:13.140Z,0
2022-11-27T06:11:14.962Z,0
2022-11-27T06:16:16.838Z,0
2022-11-27T06:21:18.623Z,0
2022-11-27T06:26:20.287Z,0
2022-11-27T06:31:22.056Z,0
2022-11-27T06:36:23.888Z,0
2022-11-27T06:41:25.692Z,0
2022-11-27T06:46:27.384Z,0
2022-11-27T06:51:29.801Z,0
2022-11-27T06:56:31.467Z,0
2022-11-27T07:01:33.274Z,0
2022-11-27T07:06:35.001Z,0
2022-11-27T07:11:36.765Z,0
2022-11-27T07:16:38.520Z,0
2022-11-27T07:21:40.324Z,0
2022-11-27T07:26:42.089Z,0
2022-11-27T07:31:44.115Z,0
2022-11-27T07:36:46.094Z,0
2022-11-27T07:41:47.859Z,0
2022-11-27T07:46:49.523Z,0
2022-11-27T07:51:51.203Z,0
2022-11-27T07:56:52.856Z,0
2022-11-27T08:01:54.590Z,0
2022-11-27T08:06:56.418Z,0
2022-11-27T08:11:58.016Z,0
2022-11-27T08:16:59.824Z,0
2022-11-27T08:22:01.596Z,0
2022-11-27T08:27:03.475Z,0
2022-11-27T08:32:05.341Z,0
2022-11-27T08:37:07.288Z,0
2022-11-27T08:42:08.975Z,0
2022-11-27T08:47:10.672Z,0
2022-11-27T08:52:12.327Z,0
2022-11-27T08:57:14.032Z,0
2022-11-27T09:02:15.657Z,0
2022-11-27T09:07:17.400Z,0
2022-11-27T09:12:19.121Z,0
2022-11-27T09:17:21.029Z,0
2022-11-27T09:22:22.840Z,0
2022-11-27T09:27:24.484Z,0
2022-11-27T09:32:26.221Z,0
2022-11-27T09:37:27.875Z,0
2022-11-27T09:42:29.488Z,0
2022-11-27T09:47:31.161Z,0
2022-11-27T09:52:32.841Z,0
2022-11-27T09:57:34.852Z,0
2022-11-27T10:02:36.817Z,0
2022-11-27T10:07:38.936Z,0
2022-11-27T10:12:40.711Z,0
2022-11-27T10:17:42.457Z,0
2022-11-27T10:22:44.183Z,0
2022-11-27T10:27:46.166Z,0
2022-11-27T10:32:55.168Z,0
2022-11-27T10:38:02.165Z,0
2022-11-27T10:43:07.197Z,0
2022-11-27T10:48:08.906Z,0
2022-11-27T10:53:10.623Z,0
2022-11-27T10:58:12.351Z,0
2022-11-27T11:03:14.095Z,0
2022-11-27T11:08:15.875Z,0
2022-11-27T11:13:17.619Z,0
2022-11-27T11:18:19.430Z,0
2022-11-27T11:23:21.264Z,0
2022-11-27T11:28:23.051Z,0
2022-11-27T11:33:24.813Z,0
2022-11-27T11:38:26.586Z,0
2022-11-27T11:43:32.874Z,0
2022-11-27T11:48:34.610Z,0
2022-11-27T11:53:36.432Z,0
2022-11-27T11:58:38.178Z,0
2022-11-27T12:03:40.055Z,0
2022-11-27T12:08:41.872Z,0
2022-11-27T12:13:43.686Z,0
2022-11-27T12:18:45.614Z,0
2022-11-27T12:23:47.348Z,0
2022-11-27T12:28:52.074Z,0
2022-11-27T12:33:56.365Z,0
2022-11-27T12:38:58.212Z,0
2022-11-27T12:43:59.964Z,0
2022-11-27T12:49:01.656Z,0
2022-11-27T12:54:03.521Z,0
2022-11-27T12:59:05.406Z,0
2022-11-27T13:04:07.070Z,0
2022-11-27T13:09:08.845Z,0
2022-11-27T13:14:10.907Z,0
2022-11-27T13:19:12.682Z,0
2022-11-27T13:24:14.364Z,0
2022-11-27T13:29:16.273Z,0
2022-11-27T13:34:17.946Z,0
2022-11-27T13:39:19.611Z,0
2022-11-27T13:44:21.587Z,0
2022-11-27T13:49:23.237Z,0
2022-11-27T13:54:28.906Z,0
2022-11-27T13:59:35.094Z,0
2022-11-27T14:04:40.070Z,0
2022-11-27T14:09:41.985Z,0
2022-11-27T14:14:43.937Z,0
2022-11-27T14:19:45.660Z,0
2022-11-27T14:24:47.313Z,0
2022-11-27T14:29:49.277Z,0
2022-11-27T14:34:51.075Z,0
2022-11-27T14:39:53.144Z,0
2022-11-27T14:44:54.930Z,0
2022-11-27T14:49:56.686Z,0
2022-11-27T14:54:58.360Z,0.88715
2022-11-27T15:00:00.171Z,1.16185
2022-11-27T15:05:01.918Z,1.3463
2022-11-27T15:10:03.686Z,8.9748
2022-11-27T15:15:05.464Z,7.52445
2022-11-27T15:20:07.374Z,18.40515
2022-11-27T15:25:09.110Z,18.2207
2022-11-27T15:30:11.059Z,45.9799
2022-11-27T15:35:12.948Z,59.82795
2022-11-27T15:40:15.079Z,75.3358
2022-11-27T15:45:16.944Z,94.4046
2022-11-27T15:50:18.659Z,122.23385
2022-11-27T15:55:20.396Z,147.07575
2022-11-27T16:00:22.216Z,165.31545
2022-11-27T16:05:24.141Z,199.21255
2022-11-27T16:10:25.856Z,201.4811
2022-11-27T16:15:32.759Z,217.747
2022-11-27T16:20:35.003Z,230.8221
2022-11-27T16:25:36.712Z,297.1787
2022-11-27T16:30:38.699Z,667.42785
2022-11-27T16:35:40.516Z,514.84365
2022-11-27T16:40:42.278Z,303.63075
2022-11-27T16:45:44.281Z,345.5732
2022-11-27T16:50:46.123Z,377.8881
2022-11-27T16:55:47.853Z,425.28435
2022-11-27T17:00:50.145Z,562.64495
2022-11-27T17:05:52.013Z,741.5564
2022-11-27T17:10:53.771Z,684.25315
2022-11-27T17:15:55.964Z,903.53645
2022-11-27T17:20:57.840Z,887.1774
2022-11-27T17:25:59.653Z,899.29225
2022-11-27T17:31:01.462Z,844.8869
2022-11-27T17:36:03.238Z,827.05225
2022-11-27T17:41:05.000Z,878.4684
2022-11-27T17:46:06.704Z,894.9016
2022-11-27T17:51:08.520Z,857.2432
2022-11-27T17:56:10.135Z,882.8382
2022-11-27T18:01:11.802Z,814.67325
2022-11-27T18:06:13.484Z,787.37835
2022-11-27T18:11:15.144Z,782.6758
2022-11-27T18:16:16.919Z,775.04105
2022-11-27T18:21:18.958Z,813.30795
2022-11-27T18:26:30.121Z,851.4094
2022-11-27T18:31:41.437Z,754.2552
2022-11-27T18:36:43.172Z,759.30765
2022-11-27T18:41:44.812Z,757.2977
2022-11-27T18:46:46.447Z,732.54895
2022-11-27T18:51:48.115Z,729.9495
2022-11-27T18:56:49.782Z,731.94045
2022-11-27T19:01:51.690Z,742.6557
2022-11-27T19:06:53.434Z,724.01095
2022-11-27T19:11:55.183Z,764.38095
2022-11-27T19:16:56.816Z,772.164
2022-11-27T19:21:58.544Z,818.8053
2022-11-27T19:27:00.154Z,912.75155
2022-11-27T19:32:01.972Z,861.2251
2022-11-27T19:37:03.825Z,870.2803
2022-11-27T19:42:05.576Z,922.62055
2022-11-27T19:47:07.305Z,1013.5966
2022-11-27T19:52:08.909Z,1072.9821
2022-11-27T19:57:10.666Z,1193.68705
2022-11-27T20:02:12.661Z,1266.92345
2022-11-27T20:07:14.365Z,815.77255
2022-11-27T20:12:16.031Z,752.75505
2022-11-27T20:17:17.636Z,877.42845
2022-11-27T20:22:19.279Z,1314.6126
2022-11-27T20:27:20.886Z,1606.63595
2022-11-27T20:32:22.534Z,1319.95795
2022-11-27T20:37:24.234Z,944.9126
2022-11-27T20:42:25.862Z,1136.97515
2022-11-27T20:47:27.551Z,599.0048
2022-11-27T20:52:29.176Z,513.74485
2022-11-27T20:57:30.832Z,469.9996
2022-11-27T21:02:32.604Z,373.50905
2022-11-27T21:07:34.512Z,499.2113
2022-11-27T21:12:36.275Z,582.0354
2022-11-27T21:17:37.928Z,542.7531
2022-11-27T21:22:39.541Z,578.8826
2022-11-27T21:27:41.183Z,550.3897
2022-11-27T21:32:42.877Z,431.78785
2022-11-27T21:37:44.525Z,370.0615
2022-11-27T21:42:46.196Z,338.3778
2022-11-27T21:47:48.015Z,401.69005
2022-11-27T21:52:49.835Z,442.66855
2022-11-27T21:57:51.491Z,379.7062
2022-11-27T22:02:53.203Z,368.51175
2022-11-27T22:07:55.270Z,401.92965
2022-11-27T22:12:57.002Z,358.2034
2022-11-27T22:17:58.623Z,308.9265
2022-11-27T22:23:00.382Z,207.56795
2022-11-27T22:28:01.991Z,180.64195
2022-11-27T22:33:03.613Z,151.52155
2022-11-27T22:38:05.206Z,156.16895
2022-11-27T22:43:06.827Z,142.6508
2022-11-27T22:48:08.502Z,119.83785
2022-11-27T22:53:10.117Z,97.873
2022-11-27T22:58:11.799Z,109.91555
2022-11-27T23:03:13.419Z,144.53145
2022-11-27T23:08:15.293Z,169.72325
2022-11-27T23:13:17.006Z,142.66795
2022-11-27T23:18:18.638Z,120.7031
2022-11-27T23:23:20.393Z,108.7157
2022-11-27T23:28:22.018Z,91.4724
2022-11-27T23:33:23.696Z,79.6143
2022-11-27T23:38:25.300Z,66.1703
2022-11-27T23:43:26.965Z,51.6196
2022-11-27T23:48:28.665Z,39.33745
2022-11-27T23:53:30.440Z,26.98115
2022-11-27T23:58:32.112Z,22.2596
